Aérodrome :
LOGIN :

S'inscrire | Disclaimer

   EN    FR    IT 

 










Légende :    VFR   VFR Marginal   IFR   IFR Intensif   IFR Très Intensif
Visi : 
Plafond : 
>= 8 km
>= 3000ft
5 à 8 km
1000 à 3000 ft
1500m à 5 km
500 à 1000 ft
800 à 1500m
200 à 500 ft
< 800m
< 200 ft
Symboles :   Orages  Brouillard  Fortes neiges  Fortes précipitations  Vent > 20 kt
SIGMETs :   Divers  Orages  Givrage  Turbulence  Onde Orograph.  Cendres Volcan.







- Altitude de l'aérodrome : 512 ft
- Code IATA : URO
- Voir les cartes d'approche


LFOP - Rouen Vallée de Seine

DERNIER METAR :
  • 271330Z AUTO 30012KT 260V340 9999 SCT039 BKN046 18/09 Q1012 NOSIG

METARs EXPIRÉS :
  • 271300Z AUTO 32011KT 270V350 9999 FEW037 BKN043 BKN050 17/09 Q1013 NOSIG
  • 271230Z AUTO 29010KT 250V340 9999 BKN049 BKN056 BKN150 17/08 Q1013 NOSIG
  • 271200Z AUTO /////KT 9999 FEW041 16/08 Q1013
  • 271130Z AUTO 29010KT 9999 FEW037 SCT045 17/09 Q1013 NOSIG
  • 271100Z AUTO /////KT 9999 FEW034 BKN041 BKN049 17/09 Q1013

TAF TAF LFOP
Valide du 27 à 12h jusqu'au 28 à 12h UTC


271100Z 2712/2812 28010KT 9999 SCT035
TEMPO 2723/2808 4000 SHRA BKN008 BKN025CB
TEMPO 2808/2812 4000 SHRA BKN025CB
ATIS : +33 2 35 80 80 34
Météo : +33 2 32 86 52 80
Pas de NOTAMs connus pour ce terrain.



MET'MAP, la Météo Aéronautique d'un coup d'oeil ! - Copyright ORBIFLY Décembre 2007 - Disclaimer

ORBIFLY MET'MAP TEAM :

Programmation & Développement : Alexandra Zaïnal
Conception & Développement : Baudouin d'Aumeries
Co-Programmation & Développement : Marc-Olivier Méhu
Soutien technique & logistique : Manuel Goepfert

Contact : metmap@orbifly.com




SOURCES & CREDITS :

   NOAA